Time;durP1;ratioP1;P1;durP2;ratioP2;P2;SDS_P1;SDS_P2;PMS_P1;PMS_P2;Temp;Humidity;BMP_temperature;BMP_pressure;BME280_temperature;BME280_humidity;BME280_pressure;Samples;Min_cycle;Max_cycle;Signal;HPM_P1;HPM_P2
2022/07/21 00:01:29;;;;;;;6.30;5.68;;;;;;;;;;5322276;28;20020;-72
2022/07/21 00:04:00;;;;;;;6.63;6.00;;;;;;;;;;5323195;28;20072;-71
2022/07/21 00:06:31;;;;;;;7.13;6.53;;;;;;;;;;5323090;28;20055;-71
2022/07/21 00:09:03;;;;;;;7.22;5.57;;;;;;;;;;5322406;28;20022;-71
2022/07/21 00:11:34;;;;;;;6.35;5.75;;;;;;;;;;5322934;28;20030;-71
2022/07/21 00:14:06;;;;;;;6.75;6.03;;;;;;;;;;5322583;28;20536;-71
2022/07/21 00:16:39;;;;;;;6.70;5.80;;;;;;;;;;5323252;28;20463;-72
2022/07/21 00:19:10;;;;;;;6.95;6.20;;;;;;;;;;5323194;28;20149;-72
2022/07/21 00:21:41;;;;;;;6.50;5.80;;;;;;;;;;5322133;28;20094;-72
2022/07/21 00:24:12;;;;;;;7.27;6.57;;;;;;;;;;5322706;28;20398;-71
2022/07/21 00:26:45;;;;;;;6.20;5.60;;;;;;;;;;5323188;28;20265;-71
2022/07/21 00:29:16;;;;;;;7.10;6.50;;;;;;;;;;5322291;28;20305;-74
2022/07/21 00:31:47;;;;;;;7.07;6.38;;;;;;;;;;5322910;28;20196;-71
2022/07/21 00:34:18;;;;;;;7.00;6.40;;;;;;;;;;5322651;28;20020;-72
2022/07/21 00:36:49;;;;;;;7.10;6.50;;;;;;;;;;5322339;28;20019;-72
2022/07/21 00:39:21;;;;;;;7.45;6.82;;;;;;;;;;5323359;28;20023;-72
2022/07/21 00:41:52;;;;;;;7.53;6.73;;;;;;;;;;5327192;28;20023;-71
2022/07/21 00:44:24;;;;;;;7.03;6.33;;;;;;;;;;5325677;28;20261;-72
2022/07/21 00:46:56;;;;;;;6.95;6.10;;;;;;;;;;5326856;27;20269;-71
2022/07/21 00:49:27;;;;;;;7.53;6.85;;;;;;;;;;5325574;28;20023;-72
2022/07/21 00:51:58;;;;;;;7.43;6.72;;;;;;;;;;5326721;28;20046;-72
2022/07/21 00:54:30;;;;;;;7.90;7.17;;;;;;;;;;5326323;28;20016;-72
2022/07/21 00:57:01;;;;;;;7.83;7.10;;;;;;;;;;5325596;28;20269;-72
2022/07/21 00:59:32;;;;;;;7.95;7.13;;;;;;;;;;5326229;28;20311;-72
2022/07/21 01:02:04;;;;;;;8.02;7.15;;;;;;;;;;5326594;28;20546;-72
2022/07/21 01:04:35;;;;;;;7.25;6.65;;;;;;;;;;5325623;28;20015;-73
2022/07/21 01:07:07;;;;;;;8.38;7.57;;;;;;;;;;5326360;28;20466;-72
2022/07/21 01:09:38;;;;;;;8.60;7.20;;;;;;;;;;5326337;28;20064;-73
2022/07/21 01:12:09;;;;;;;8.03;7.33;;;;;;;;;;5325127;28;20042;-72
2022/07/21 01:14:40;;;;;;;8.07;7.22;;;;;;;;;;5326554;28;20624;-72
2022/07/21 01:17:11;;;;;;;9.93;7.87;;;;;;;;;;5326238;28;20028;-72
2022/07/21 01:19:43;;;;;;;8.35;7.55;;;;;;;;;;5325458;28;20352;-71
2022/07/21 01:22:14;;;;;;;8.88;8.07;;;;;;;;;;5325803;28;20016;-71
2022/07/21 01:24:46;;;;;;;8.82;8.02;;;;;;;;;;5325390;28;20015;-72
2022/07/21 01:27:17;;;;;;;9.07;8.18;;;;;;;;;;5326083;28;20012;-73
2022/07/21 01:29:48;;;;;;;8.90;8.07;;;;;;;;;;5326076;28;20015;-73
2022/07/21 01:32:19;;;;;;;8.95;8.15;;;;;;;;;;5324722;28;20034;-71
2022/07/21 01:34:50;;;;;;;10.82;8.73;;;;;;;;;;5326030;28;20016;-72
2022/07/21 01:37:22;;;;;;;9.07;8.23;;;;;;;;;;5325396;28;20015;-73
2022/07/21 01:42:43;;;;;;;10.18;8.70;;;;;;;;;;5325647;28;20040;-72
2022/07/21 01:45:15;;;;;;;9.32;8.45;;;;;;;;;;5325557;28;20019;-72
2022/07/21 01:47:46;;;;;;;8.80;8.00;;;;;;;;;;5324994;28;20020;-72
2022/07/21 01:50:18;;;;;;;9.87;8.83;;;;;;;;;;5325323;28;20273;-72
2022/07/21 01:52:50;;;;;;;9.73;8.82;;;;;;;;;;5324488;28;20778;-72
2022/07/21 01:55:21;;;;;;;9.13;8.30;;;;;;;;;;5324969;28;20019;-72
2022/07/21 01:57:52;;;;;;;10.52;9.45;;;;;;;;;;5325568;28;20352;-73
2022/07/21 02:00:24;;;;;;;9.48;8.57;;;;;;;;;;5324375;28;20044;-72
2022/07/21 02:02:55;;;;;;;9.05;8.15;;;;;;;;;;5325838;28;20026;-72
2022/07/21 02:05:26;;;;;;;9.30;8.40;;;;;;;;;;5324887;28;20016;-73
2022/07/21 02:07:57;;;;;;;9.30;8.37;;;;;;;;;;5324588;28;20019;-72
2022/07/21 02:10:28;;;;;;;9.27;8.45;;;;;;;;;;5324535;28;20273;-73
2022/07/21 02:12:59;;;;;;;10.20;9.27;;;;;;;;;;5325052;28;20019;-72
2022/07/21 02:15:31;;;;;;;13.55;9.05;;;;;;;;;;5324296;28;20257;-72
2022/07/21 02:18:02;;;;;;;10.63;9.53;;;;;;;;;;5325026;28;20023;-72
2022/07/21 02:20:33;;;;;;;8.85;8.00;;;;;;;;;;5324939;28;20257;-73
2022/07/21 02:23:04;;;;;;;9.55;8.75;;;;;;;;;;5323650;28;20035;-73
2022/07/21 02:25:35;;;;;;;11.80;10.63;;;;;;;;;;5324909;28;20012;-73
2022/07/21 02:28:06;;;;;;;9.90;8.90;;;;;;;;;;5323933;28;20020;-72
2022/07/21 02:30:38;;;;;;;10.85;9.95;;;;;;;;;;5324308;28;20407;-73
2022/07/21 02:33:09;;;;;;;12.68;10.32;;;;;;;;;;5324611;28;20024;-71
2022/07/21 02:35:40;;;;;;;11.10;9.82;;;;;;;;;;5323627;28;20459;-72
2022/07/21 02:38:11;;;;;;;10.63;9.55;;;;;;;;;;5324592;28;20026;-74
2022/07/21 02:40:43;;;;;;;10.52;9.55;;;;;;;;;;5324521;28;20047;-71
2022/07/21 02:43:14;;;;;;;11.68;10.48;;;;;;;;;;5323693;28;20095;-71
2022/07/21 02:45:45;;;;;;;10.37;9.37;;;;;;;;;;5324326;28;20022;-73
2022/07/21 02:48:16;;;;;;;11.55;10.45;;;;;;;;;;5324661;28;20258;-73
2022/07/21 02:50:48;;;;;;;11.47;10.37;;;;;;;;;;5323433;28;20368;-72
2022/07/21 02:53:19;;;;;;;11.35;10.30;;;;;;;;;;5323789;28;20293;-73
2022/07/21 02:55:54;;;;;;;11.85;10.65;;;;;;;;;;5323610;28;20008;-71
2022/07/21 02:58:26;;;;;;;12.80;10.70;;;;;;;;;;5323767;28;20022;-72
2022/07/21 03:00:59;;;;;;;12.07;10.82;;;;;;;;;;5324471;28;20019;-73
2022/07/21 03:03:31;;;;;;;11.98;10.88;;;;;;;;;;5322521;28;20016;-72
2022/07/21 03:06:03;;;;;;;12.65;11.35;;;;;;;;;;5324003;28;20019;-72
2022/07/21 03:08:34;;;;;;;12.85;11.45;;;;;;;;;;5323974;28;20024;-72
2022/07/21 03:11:06;;;;;;;13.48;11.77;;;;;;;;;;5323127;28;20057;-72
2022/07/21 03:13:37;;;;;;;13.55;12.13;;;;;;;;;;5323687;28;20619;-72
2022/07/21 03:16:08;;;;;;;13.57;11.67;;;;;;;;;;5323801;28;20462;-72
2022/07/21 03:18:41;;;;;;;13.07;11.67;;;;;;;;;;5323305;28;20265;-72
2022/07/21 03:21:12;;;;;;;14.05;11.77;;;;;;;;;;5323571;28;20659;-72
2022/07/21 03:23:45;;;;;;;13.77;12.25;;;;;;;;;;5323513;28;20157;-73
2022/07/21 03:26:16;;;;;;;12.65;11.48;;;;;;;;;;5322867;28;20065;-72
2022/07/21 03:28:47;;;;;;;12.95;11.65;;;;;;;;;;5323654;28;20016;-72
2022/07/21 03:31:18;;;;;;;23.73;12.65;;;;;;;;;;5322391;28;20080;-72
2022/07/21 03:33:49;;;;;;;13.10;11.77;;;;;;;;;;5323834;28;20030;-72
2022/07/21 03:36:22;;;;;;;15.05;11.45;;;;;;;;;;5323285;28;20100;-73
2022/07/21 03:38:53;;;;;;;12.80;11.60;;;;;;;;;;5323184;28;20089;-73
2022/07/21 03:41:24;;;;;;;13.20;11.30;;;;;;;;;;5323199;28;20019;-72
2022/07/21 03:43:55;;;;;;;13.90;11.13;;;;;;;;;;5323706;28;20272;-72
2022/07/21 03:46:26;;;;;;;12.93;11.55;;;;;;;;;;5322254;28;20504;-72
2022/07/21 03:48:57;;;;;;;15.37;11.50;;;;;;;;;;5323677;28;20016;-73
2022/07/21 03:51:29;;;;;;;13.90;10.90;;;;;;;;;;5322982;28;20863;-73
2022/07/21 03:54:01;;;;;;;12.63;10.93;;;;;;;;;;5322474;28;20012;-72
2022/07/21 03:56:32;;;;;;;11.45;10.35;;;;;;;;;;5323150;28;20744;-73
2022/07/21 03:59:04;;;;;;;12.68;10.55;;;;;;;;;;5323103;28;20026;-72
2022/07/21 04:01:35;;;;;;;11.07;9.97;;;;;;;;;;5322907;28;20024;-72
2022/07/21 04:04:06;;;;;;;11.87;10.67;;;;;;;;;;5323170;28;20261;-72
2022/07/21 04:06:37;;;;;;;11.50;10.05;;;;;;;;;;5322478;28;20281;-72
2022/07/21 04:09:09;;;;;;;12.68;9.93;;;;;;;;;;5322988;28;20016;-72
2022/07/21 04:11:40;;;;;;;12.10;10.55;;;;;;;;;;5323312;28;20020;-72
2022/07/21 04:14:11;;;;;;;10.88;9.10;;;;;;;;;;5322653;28;20051;-72
2022/07/21 04:16:43;;;;;;;14.27;10.43;;;;;;;;;;5327461;28;20373;-72
2022/07/21 04:19:14;;;;;;;12.43;10.48;;;;;;;;;;5327171;28;20330;-72
2022/07/21 04:21:45;;;;;;;13.13;10.27;;;;;;;;;;5326472;28;20015;-72
2022/07/21 04:24:16;;;;;;;11.37;10.00;;;;;;;;;;5326991;28;20073;-72
2022/07/21 04:26:47;;;;;;;13.93;10.85;;;;;;;;;;5327005;28;20827;-72
2022/07/21 04:29:18;;;;;;;12.45;11.13;;;;;;;;;;5325945;28;20092;-72
2022/07/21 04:31:50;;;;;;;11.57;10.27;;;;;;;;;;5327249;28;20285;-73
2022/07/21 04:34:21;;;;;;;17.52;10.40;;;;;;;;;;5325875;28;20027;-72
2022/07/21 04:36:52;;;;;;;11.13;10.03;;;;;;;;;;5327399;28;20436;-72
2022/07/21 04:39:23;;;;;;;11.68;9.90;;;;;;;;;;5326693;28;20258;-73
2022/07/21 04:41:55;;;;;;;11.27;9.98;;;;;;;;;;5326288;28;20077;-73
2022/07/21 04:44:26;;;;;;;11.48;10.25;;;;;;;;;;5326354;28;20103;-72
2022/07/21 04:46:57;;;;;;;11.35;10.02;;;;;;;;;;5326957;28;20455;-72
2022/07/21 04:49:28;;;;;;;14.20;11.35;;;;;;;;;;5325560;28;20467;-72
2022/07/21 04:52:00;;;;;;;14.45;10.10;;;;;;;;;;5326436;28;20466;-72
2022/07/21 04:54:31;;;;;;;12.18;10.88;;;;;;;;;;5326663;28;20073;-73
2022/07/21 04:57:03;;;;;;;11.85;10.65;;;;;;;;;;5325746;28;20058;-73
2022/07/21 04:59:35;;;;;;;12.20;10.75;;;;;;;;;;5326524;28;20025;-73
2022/07/21 05:02:06;;;;;;;14.13;10.90;;;;;;;;;;5326470;28;20016;-73
2022/07/21 05:04:37;;;;;;;12.60;11.10;;;;;;;;;;5325589;28;20035;-73
2022/07/21 05:07:09;;;;;;;12.43;11.20;;;;;;;;;;5326313;28;20007;-73
2022/07/21 05:09:40;;;;;;;13.50;10.60;;;;;;;;;;5325515;28;20023;-73
2022/07/21 05:12:11;;;;;;;10.32;8.95;;;;;;;;;;5326127;28;20788;-74
2022/07/21 05:14:42;;;;;;;14.05;10.10;;;;;;;;;;5326342;28;20455;-74
2022/07/21 05:17:13;;;;;;;13.05;10.25;;;;;;;;;;5325413;28;20031;-74
2022/07/21 05:19:48;;;;;;;10.10;9.10;;;;;;;;;;5325948;28;20069;-72
2022/07/21 05:22:19;;;;;;;9.85;8.63;;;;;;;;;;5325718;28;20277;-73
2022/07/21 05:24:50;;;;;;;12.57;8.65;;;;;;;;;;5325706;28;20026;-72
2022/07/21 05:27:22;;;;;;;11.75;8.93;;;;;;;;;;5324542;28;20069;-72
2022/07/21 05:29:54;;;;;;;9.70;8.07;;;;;;;;;;5326257;28;20091;-72
2022/07/21 05:32:26;;;;;;;14.27;8.45;;;;;;;;;;5324540;28;20104;-72
2022/07/21 05:34:57;;;;;;;12.02;8.55;;;;;;;;;;5325895;28;20044;-72
2022/07/21 05:37:28;;;;;;;13.45;8.45;;;;;;;;;;5325350;28;20386;-72
2022/07/21 05:40:00;;;;;;;10.85;8.15;;;;;;;;;;5324874;28;20351;-72
2022/07/21 05:42:31;;;;;;;13.35;8.20;;;;;;;;;;5325755;28;20015;-72
2022/07/21 05:45:03;;;;;;;12.10;8.48;;;;;;;;;;5324530;28;20028;-72
2022/07/21 05:47:34;;;;;;;11.57;9.40;;;;;;;;;;5325436;28;20354;-72
2022/07/21 05:50:06;;;;;;;13.80;8.75;;;;;;;;;;5325520;28;20043;-72
2022/07/21 05:52:38;;;;;;;11.15;8.55;;;;;;;;;;5324400;28;20137;-72
2022/07/21 05:55:09;;;;;;;15.80;9.50;;;;;;;;;;5325344;28;20503;-71
2022/07/21 05:57:41;;;;;;;13.85;10.00;;;;;;;;;;5325315;28;20032;-72
2022/07/21 06:00:12;;;;;;;16.48;9.93;;;;;;;;;;5324770;27;20046;-72
2022/07/21 06:02:44;;;;;;;17.35;10.80;;;;;;;;;;5325393;28;20028;-72
2022/07/21 06:05:15;;;;;;;15.95;11.02;;;;;;;;;;5325314;28;20024;-73
2022/07/21 06:07:48;;;;;;;19.90;12.07;;;;;;;;;;5324260;28;20057;-72
2022/07/21 06:10:19;;;;;;;16.17;10.85;;;;;;;;;;5324660;28;20020;-72
2022/07/21 06:12:50;;;;;;;14.43;11.33;;;;;;;;;;5324672;28;20528;-72
2022/07/21 06:15:21;;;;;;;18.90;12.20;;;;;;;;;;5324677;28;20379;-72
2022/07/21 06:17:53;;;;;;;16.17;12.77;;;;;;;;;;5325317;28;20271;-73
2022/07/21 06:20:24;;;;;;;17.15;12.73;;;;;;;;;;5323602;28;20053;-73
2022/07/21 06:22:55;;;;;;;16.67;12.45;;;;;;;;;;5325030;28;20047;-72
2022/07/21 06:25:26;;;;;;;22.50;14.43;;;;;;;;;;5324689;28;20103;-73
2022/07/21 06:27:57;;;;;;;19.47;14.07;;;;;;;;;;5324330;28;20023;-73
2022/07/21 06:30:28;;;;;;;22.13;14.03;;;;;;;;;;5324282;28;20361;-73
2022/07/21 06:33:00;;;;;;;27.30;16.35;;;;;;;;;;5324631;28;20281;-72
2022/07/21 06:35:31;;;;;;;20.80;14.93;;;;;;;;;;5324065;28;20043;-73
2022/07/21 06:38:02;;;;;;;19.55;14.48;;;;;;;;;;5324434;28;20322;-73
2022/07/21 06:40:34;;;;;;;27.02;15.15;;;;;;;;;;5324637;28;20026;-73
2022/07/21 06:43:05;;;;;;;23.17;14.77;;;;;;;;;;5323613;28;20022;-73
2022/07/21 06:45:36;;;;;;;18.10;12.77;;;;;;;;;;5324328;28;20027;-73
2022/07/21 06:48:08;;;;;;;19.20;14.27;;;;;;;;;;5323855;28;20265;-73
2022/07/21 06:50:39;;;;;;;19.75;14.63;;;;;;;;;;5324455;28;20064;-72
2022/07/21 06:53:10;;;;;;;19.67;14.40;;;;;;;;;;5324451;28;20205;-73
2022/07/21 06:55:41;;;;;;;25.33;14.77;;;;;;;;;;5323499;28;20022;-73
2022/07/21 06:58:15;;;;;;;18.48;14.20;;;;;;;;;;5324110;28;20020;-73
2022/07/21 07:00:47;;;;;;;18.77;14.70;;;;;;;;;;5324196;28;20492;-73
2022/07/21 07:03:18;;;;;;;18.88;14.30;;;;;;;;;;5323007;28;20028;-73
2022/07/21 07:05:50;;;;;;;19.17;13.57;;;;;;;;;;5324401;28;20111;-73
2022/07/21 07:08:21;;;;;;;20.40;13.48;;;;;;;;;;5323628;28;20380;-73
2022/07/21 07:10:52;;;;;;;19.83;14.88;;;;;;;;;;5323388;28;20527;-71
2022/07/21 07:13:23;;;;;;;20.43;14.97;;;;;;;;;;5323670;28;20034;-71
2022/07/21 07:15:54;;;;;;;21.15;15.20;;;;;;;;;;5324060;28;20274;-71
2022/07/21 07:18:26;;;;;;;27.08;14.55;;;;;;;;;;5322718;28;20407;-71
2022/07/21 07:20:57;;;;;;;20.35;15.30;;;;;;;;;;5323840;28;20470;-71
2022/07/21 07:23:28;;;;;;;20.43;15.17;;;;;;;;;;5322398;28;20051;-72
2022/07/21 07:25:59;;;;;;;23.60;14.53;;;;;;;;;;5323496;28;20308;-72
2022/07/21 07:28:30;;;;;;;18.80;15.17;;;;;;;;;;5323396;28;20666;-71
2022/07/21 07:31:02;;;;;;;22.17;14.77;;;;;;;;;;5322746;28;20366;-72
2022/07/21 07:33:33;;;;;;;19.52;14.30;;;;;;;;;;5323607;28;20261;-71
2022/07/21 07:36:04;;;;;;;20.17;14.03;;;;;;;;;;5323715;28;20470;-73
2022/07/21 07:38:35;;;;;;;18.45;14.40;;;;;;;;;;5322982;28;20288;-72
2022/07/21 07:41:07;;;;;;;22.90;15.50;;;;;;;;;;5323529;28;20023;-74
2022/07/21 07:43:38;;;;;;;26.95;14.55;;;;;;;;;;5323646;28;20257;-74
2022/07/21 07:46:10;;;;;;;23.67;14.32;;;;;;;;;;5323050;28;20026;-72
2022/07/21 07:48:42;;;;;;;22.20;14.18;;;;;;;;;;5324563;28;20031;-72
2022/07/21 07:51:13;;;;;;;17.52;12.48;;;;;;;;;;5329646;28;20027;-72
2022/07/21 07:53:44;;;;;;;17.42;13.25;;;;;;;;;;5330826;27;20023;-72
2022/07/21 07:56:16;;;;;;;12.60;11.27;;;;;;;;;;5325970;28;20160;-71
2022/07/21 07:58:47;;;;;;;12.00;10.82;;;;;;;;;;5329299;28;20098;-70
2022/07/21 08:01:19;;;;;;;10.98;8.38;;;;;;;;;;5329728;27;20343;-72
2022/07/21 08:03:50;;;;;;;9.13;7.93;;;;;;;;;;5330769;27;20039;-71
2022/07/21 08:06:22;;;;;;;12.00;8.70;;;;;;;;;;5329530;28;20072;-70
2022/07/21 08:08:53;;;;;;;9.20;8.30;;;;;;;;;;5330655;28;20019;-69
2022/07/21 08:11:24;;;;;;;8.68;7.88;;;;;;;;;;5329846;28;20032;-71
2022/07/21 08:13:56;;;;;;;8.73;7.68;;;;;;;;;;5329579;27;20008;-70
2022/07/21 08:16:27;;;;;;;9.17;6.90;;;;;;;;;;5329737;28;20026;-69
2022/07/21 08:18:58;;;;;;;7.85;7.10;;;;;;;;;;5330629;27;20253;-69
2022/07/21 08:21:30;;;;;;;8.27;6.78;;;;;;;;;;5329170;28;20020;-70
2022/07/21 08:24:02;;;;;;;5.88;5.38;;;;;;;;;;5330129;27;20285;-69
2022/07/21 08:26:33;;;;;;;7.18;5.57;;;;;;;;;;5329507;27;20050;-70
2022/07/21 08:29:04;;;;;;;6.27;5.67;;;;;;;;;;5330278;28;20023;-71
2022/07/21 08:31:35;;;;;;;6.45;5.85;;;;;;;;;;5329992;27;20293;-71
2022/07/21 08:34:07;;;;;;;8.18;5.80;;;;;;;;;;5329494;28;20496;-71
2022/07/21 08:36:38;;;;;;;8.27;6.88;;;;;;;;;;5330214;28;20841;-71
2022/07/21 08:39:09;;;;;;;6.83;6.23;;;;;;;;;;5330132;28;20465;-69
2022/07/21 08:41:40;;;;;;;7.22;5.93;;;;;;;;;;5329295;28;20764;-70
2022/07/21 08:44:12;;;;;;;6.85;6.18;;;;;;;;;;5330130;27;20047;-72
2022/07/21 08:46:48;;;;;;;10.07;8.05;;;;;;;;;;5330119;28;20111;-72
2022/07/21 08:49:21;;;;;;;8.93;7.07;;;;;;;;;;5328991;27;20500;-71
2022/07/21 08:51:53;;;;;;;8.75;7.85;;;;;;;;;;5330181;27;20451;-72
2022/07/21 08:54:24;;;;;;;8.95;8.15;;;;;;;;;;5329586;28;20073;-71
2022/07/21 08:56:55;;;;;;;9.70;8.60;;;;;;;;;;5329732;28;20051;-71
2022/07/21 08:59:26;;;;;;;10.27;9.27;;;;;;;;;;5329666;28;20265;-72
2022/07/21 09:01:58;;;;;;;11.38;9.95;;;;;;;;;;5326604;28;20012;-73
2022/07/21 09:04:33;;;;;;;11.02;9.70;;;;;;;;;;5326343;28;20368;-73
2022/07/21 09:07:06;;;;;;;10.57;9.57;;;;;;;;;;5326396;28;20531;-72
2022/07/21 09:09:37;;;;;;;9.50;8.35;;;;;;;;;;5325905;28;20031;-74
2022/07/21 09:12:08;;;;;;;10.98;9.88;;;;;;;;;;5326382;28;20023;-72
2022/07/21 09:14:40;;;;;;;9.87;8.80;;;;;;;;;;5326365;28;20016;-72
2022/07/21 09:17:11;;;;;;;8.13;7.32;;;;;;;;;;5325565;27;20258;-72
2022/07/21 09:19:45;;;;;;;8.10;7.30;;;;;;;;;;5326352;28;20518;-72
2022/07/21 09:22:18;;;;;;;9.15;7.55;;;;;;;;;;5326197;28;20020;-72
2022/07/21 09:24:50;;;;;;;8.80;7.93;;;;;;;;;;5325795;28;20485;-72
2022/07/21 09:27:24;;;;;;;8.93;8.13;;;;;;;;;;5325790;28;20020;-73
2022/07/21 09:29:57;;;;;;;8.55;7.85;;;;;;;;;;5325308;28;20012;-73
2022/07/21 09:32:36;;;;;;;8.95;8.10;;;;;;;;;;5325736;28;20390;-73
2022/07/21 09:35:14;;;;;;;8.02;7.22;;;;;;;;;;5326087;28;20107;-72
2022/07/21 09:37:45;;;;;;;8.18;7.35;;;;;;;;;;5325226;28;20022;-72
2022/07/21 09:40:17;;;;;;;6.30;5.70;;;;;;;;;;5325390;28;20016;-72
2022/07/21 09:42:49;;;;;;;6.22;5.72;;;;;;;;;;5325849;28;20291;-72
2022/07/21 09:45:20;;;;;;;5.63;4.78;;;;;;;;;;5324820;28;20020;-71
2022/07/21 09:47:52;;;;;;;4.10;3.80;;;;;;;;;;5325985;28;20030;-72
2022/07/21 09:50:23;;;;;;;4.15;3.85;;;;;;;;;;5325326;28;20756;-72
2022/07/21 09:52:55;;;;;;;5.18;3.97;;;;;;;;;;5325093;28;20027;-75
2022/07/21 09:55:28;;;;;;;3.60;3.17;;;;;;;;;;5325455;28;20310;-75
2022/07/21 09:57:59;;;;;;;5.10;4.18;;;;;;;;;;5324772;28;20019;-76
2022/07/21 10:00:31;;;;;;;4.05;3.72;;;;;;;;;;5306654;28;20041;-75
2022/07/21 10:03:03;;;;;;;4.90;4.50;;;;;;;;;;5305792;28;20379;-74
2022/07/21 10:05:35;;;;;;;4.95;4.47;;;;;;;;;;5302308;28;20032;-75
2022/07/21 10:08:06;;;;;;;5.88;5.47;;;;;;;;;;5303146;28;20475;-75
2022/07/21 10:10:37;;;;;;;6.75;6.10;;;;;;;;;;5318982;28;20020;-75
2022/07/21 10:13:09;;;;;;;6.20;5.60;;;;;;;;;;5323024;28;20106;-73
2022/07/21 10:15:40;;;;;;;6.65;5.07;;;;;;;;;;5324051;28;20326;-74
2022/07/21 10:18:13;;;;;;;7.05;6.35;;;;;;;;;;5324026;28;20031;-74
2022/07/21 10:20:48;;;;;;;6.93;6.28;;;;;;;;;;5323064;28;20046;-74
2022/07/21 10:23:28;;;;;;;7.00;6.43;;;;;;;;;;5323378;28;20157;-75
2022/07/21 10:25:59;;;;;;;6.10;5.63;;;;;;;;;;5323250;28;20415;-75
2022/07/21 10:28:31;;;;;;;8.00;5.93;;;;;;;;;;5324232;28;20054;-73
2022/07/21 10:31:19;;;;;;;6.50;5.97;;;;;;;;;;5323470;28;20461;-73
2022/07/21 10:33:52;;;;;;;7.10;5.82;;;;;;;;;;5323404;28;20060;-75
2022/07/21 10:36:26;;;;;;;7.47;6.78;;;;;;;;;;5323328;28;20457;-74
2022/07/21 10:39:06;;;;;;;8.65;7.20;;;;;;;;;;5324109;28;20023;-74
2022/07/21 10:41:41;;;;;;;7.97;7.20;;;;;;;;;;5322610;28;20119;-73
2022/07/21 10:44:35;;;;;;;7.30;6.45;;;;;;;;;;5323773;28;20027;-74
2022/07/21 10:47:20;;;;;;;8.55;7.13;;;;;;;;;;5322131;28;20063;-70
2022/07/21 10:49:53;;;;;;;7.82;7.13;;;;;;;;;;5323629;28;20030;-72
2022/07/21 10:52:40;;;;;;;8.88;5.30;;;;;;;;;;5323222;28;20128;-73
2022/07/21 10:55:24;;;;;;;8.98;5.13;;;;;;;;;;5322458;28;20016;-70
2022/07/21 10:58:22;;;;;;;7.55;5.45;;;;;;;;;;5323826;28;20486;-72
2022/07/21 11:00:55;;;;;;;5.57;4.80;;;;;;;;;;5323699;28;20027;-73
2022/07/21 11:03:30;;;;;;;7.57;5.35;;;;;;;;;;5322079;28;20015;-72
2022/07/21 11:06:13;;;;;;;9.20;6.22;;;;;;;;;;5322996;28;20099;-72
2022/07/21 11:08:49;;;;;;;8.88;5.78;;;;;;;;;;5322507;28;20084;-73
2022/07/21 11:11:21;;;;;;;8.13;5.63;;;;;;;;;;5322691;28;20059;-73
2022/07/21 11:14:09;;;;;;;7.00;6.30;;;;;;;;;;5321690;28;20098;-73
2022/07/21 11:16:49;;;;;;;6.28;5.28;;;;;;;;;;5307235;28;20126;-73
2022/07/21 11:19:31;;;;;;;8.32;5.72;;;;;;;;;;5301643;28;20028;-73
2022/07/21 11:22:03;;;;;;;8.18;4.82;;;;;;;;;;5313708;28;20481;-73
2022/07/21 11:24:35;;;;;;;9.52;5.30;;;;;;;;;;5320887;28;20111;-73
2022/07/21 11:27:07;;;;;;;9.15;5.38;;;;;;;;;;5323203;28;20026;-73
2022/07/21 11:29:40;;;;;;;6.65;4.45;;;;;;;;;;5322206;28;20043;-73
2022/07/21 11:32:12;;;;;;;7.40;5.10;;;;;;;;;;5323086;28;20520;-73
2022/07/21 11:34:50;;;;;;;6.50;4.30;;;;;;;;;;5323058;28;20024;-73
2022/07/21 11:37:33;;;;;;;5.22;4.72;;;;;;;;;;5321629;28;20039;-73
2022/07/21 11:40:06;;;;;;;7.10;4.13;;;;;;;;;;5322845;28;20103;-71
2022/07/21 11:42:37;;;;;;;7.97;4.00;;;;;;;;;;5322664;28;20023;-71
2022/07/21 11:45:08;;;;;;;6.80;3.80;;;;;;;;;;5321913;28;20071;-72
2022/07/21 11:47:40;;;;;;;5.93;4.88;;;;;;;;;;5322817;28;20058;-71
2022/07/21 11:50:12;;;;;;;6.47;5.63;;;;;;;;;;5322876;28;20028;-71
2022/07/21 11:52:43;;;;;;;8.35;5.20;;;;;;;;;;5322245;28;20031;-71
2022/07/21 11:55:15;;;;;;;5.65;5.10;;;;;;;;;;5323699;28;20020;-73
2022/07/21 11:57:46;;;;;;;7.93;6.33;;;;;;;;;;5322659;28;20028;-71
2022/07/21 12:00:17;;;;;;;6.95;6.30;;;;;;;;;;5323539;28;20295;-71
2022/07/21 12:02:48;;;;;;;9.25;6.63;;;;;;;;;;5323742;28;20015;-71
2022/07/21 12:05:20;;;;;;;9.60;7.45;;;;;;;;;;5322589;28;20015;-71
2022/07/21 12:07:54;;;;;;;10.85;7.65;;;;;;;;;;5323692;28;20011;-70
2022/07/21 12:10:27;;;;;;;9.27;7.45;;;;;;;;;;5322940;28;20019;-70
2022/07/21 12:12:58;;;;;;;10.00;8.48;;;;;;;;;;5322886;28;20032;-70
2022/07/21 12:15:33;;;;;;;8.60;7.53;;;;;;;;;;5322941;28;20020;-70
2022/07/21 12:18:26;;;;;;;7.35;6.63;;;;;;;;;;5323270;28;20055;-71
2022/07/21 12:21:01;;;;;;;6.55;5.95;;;;;;;;;;5322800;28;20020;-70
2022/07/21 12:23:32;;;;;;;6.15;5.50;;;;;;;;;;5323106;28;20488;-69
2022/07/21 12:26:03;;;;;;;7.90;5.87;;;;;;;;;;5322344;28;20020;-70
2022/07/21 12:28:42;;;;;;;6.63;5.53;;;;;;;;;;5323088;28;20338;-72
2022/07/21 12:31:14;;;;;;;;;;;;;;;;;;5323198;28;20031;-70
2022/07/21 12:33:45;;;;;;;9.13;6.50;;;;;;;;;;5322430;28;19904;-70
2022/07/21 12:36:19;;;;;;;6.00;5.05;;;;;;;;;;5324912;28;20037;-70
2022/07/21 12:38:53;;;;;;;6.68;5.70;;;;;;;;;;5327565;28;20031;-70
2022/07/21 12:41:24;;;;;;;7.20;6.28;;;;;;;;;;5325734;28;20042;-70
2022/07/21 12:43:55;;;;;;;7.22;6.55;;;;;;;;;;5327723;28;20020;-70
2022/07/21 12:46:33;;;;;;;9.40;6.57;;;;;;;;;;5326659;28;20122;-71
2022/07/21 12:49:09;;;;;;;7.40;6.57;;;;;;;;;;5326501;28;20281;-70
2022/07/21 12:51:41;;;;;;;7.07;5.32;;;;;;;;;;5326667;28;20100;-70
2022/07/21 12:54:12;;;;;;;5.57;4.68;;;;;;;;;;5325891;28;20019;-71
2022/07/21 12:56:44;;;;;;;8.15;5.22;;;;;;;;;;5326658;28;20024;-70
2022/07/21 12:59:15;;;;;;;4.97;4.23;;;;;;;;;;5326556;28;20262;-71
2022/07/21 13:01:46;;;;;;;5.97;4.18;;;;;;;;;;5325753;28;20261;-71
2022/07/21 13:04:17;;;;;;;5.93;3.40;;;;;;;;;;5326348;28;20015;-72
2022/07/21 13:06:50;;;;;;;5.63;3.33;;;;;;;;;;5326204;28;20023;-72
2022/07/21 13:09:21;;;;;;;4.30;2.85;;;;;;;;;;5325570;28;20023;-72
2022/07/21 13:11:52;;;;;;;5.75;2.47;;;;;;;;;;5326715;28;20019;-72
2022/07/21 13:14:23;;;;;;;4.20;2.25;;;;;;;;;;5326170;28;20016;-72
2022/07/21 13:16:56;;;;;;;5.55;2.60;;;;;;;;;;5323876;28;20023;-72
2022/07/21 13:19:27;;;;;;;6.07;2.92;;;;;;;;;;5325071;28;20128;-71
2022/07/21 13:21:59;;;;;;;6.60;3.33;;;;;;;;;;5325887;28;20463;-72
2022/07/21 13:24:30;;;;;;;5.80;3.65;;;;;;;;;;5326016;28;20039;-72
2022/07/21 13:27:01;;;;;;;5.68;2.58;;;;;;;;;;5326209;28;20081;-74
2022/07/21 13:29:32;;;;;;;4.82;2.40;;;;;;;;;;5324897;28;20098;-73
2022/07/21 13:32:03;;;;;;;3.80;2.20;;;;;;;;;;5326079;28;20110;-72
2022/07/21 13:34:35;;;;;;;4.78;2.25;;;;;;;;;;5325834;28;20028;-71
2022/07/21 13:37:11;;;;;;;5.07;2.40;;;;;;;;;;5325076;28;20024;-71
2022/07/21 13:39:42;;;;;;;4.57;2.65;;;;;;;;;;5326038;28;20807;-72
2022/07/21 13:42:13;;;;;;;4.25;3.20;;;;;;;;;;5325741;28;20098;-72
2022/07/21 13:44:44;;;;;;;4.55;2.90;;;;;;;;;;5325159;28;20264;-72
2022/07/21 13:47:15;;;;;;;4.43;3.15;;;;;;;;;;5324885;27;20026;-71
2022/07/21 13:49:47;;;;;;;6.50;3.00;;;;;;;;;;5325820;28;20023;-71
2022/07/21 13:52:18;;;;;;;5.45;3.15;;;;;;;;;;5324421;28;20417;-71
2022/07/21 13:54:49;;;;;;;5.05;2.67;;;;;;;;;;5326217;28;20519;-71
2022/07/21 13:57:20;;;;;;;6.95;3.40;;;;;;;;;;5324790;28;20023;-72
2022/07/21 13:59:51;;;;;;;5.90;2.77;;;;;;;;;;5326092;28;20030;-73
2022/07/21 14:02:23;;;;;;;5.03;2.90;;;;;;;;;;5325463;28;20290;-73
2022/07/21 14:04:54;;;;;;;3.83;3.10;;;;;;;;;;5324843;28;20020;-70
2022/07/21 14:07:25;;;;;;;7.23;3.17;;;;;;;;;;5325178;28;20027;-71
2022/07/21 14:09:56;;;;;;;5.75;3.33;;;;;;;;;;5325763;28;20268;-72
2022/07/21 14:12:28;;;;;;;5.82;2.92;;;;;;;;;;5324222;28;20135;-73
2022/07/21 14:14:59;;;;;;;10.85;3.97;;;;;;;;;;5325566;28;20023;-72
2022/07/21 14:17:30;;;;;;;7.22;3.42;;;;;;;;;;5325108;28;20043;-72
2022/07/21 14:20:01;;;;;;;8.30;3.83;;;;;;;;;;5324662;28;20012;-72
2022/07/21 14:22:32;;;;;;;8.65;4.15;;;;;;;;;;5325018;28;20291;-71
2022/07/21 14:25:19;;;;;;;8.10;4.60;;;;;;;;;;5324438;28;20030;-72
2022/07/21 14:27:51;;;;;;;9.10;3.75;;;;;;;;;;5325270;28;20279;-72
2022/07/21 14:30:27;;;;;;;8.55;3.65;;;;;;;;;;5324906;28;20187;-72
2022/07/21 14:32:58;;;;;;;8.68;4.70;;;;;;;;;;5324537;28;20023;-71
2022/07/21 14:35:29;;;;;;;12.57;5.65;;;;;;;;;;5319722;28;20031;-72
2022/07/21 14:38:01;;;;;;;7.57;4.80;;;;;;;;;;5323116;28;20015;-71
2022/07/21 14:40:32;;;;;;;7.57;4.60;;;;;;;;;;5323911;28;20020;-72
2022/07/21 14:43:04;;;;;;;10.43;5.07;;;;;;;;;;5324814;27;20018;-71
2022/07/21 14:45:35;;;;;;;8.98;4.88;;;;;;;;;;5324574;28;20022;-71
2022/07/21 14:48:07;;;;;;;11.37;5.70;;;;;;;;;;5323802;28;20019;-71
2022/07/21 14:50:38;;;;;;;9.90;5.80;;;;;;;;;;5324564;28;20674;-70
2022/07/21 14:53:10;;;;;;;10.85;6.60;;;;;;;;;;5324020;28;20036;-72
2022/07/21 14:55:41;;;;;;;10.50;7.57;;;;;;;;;;5324445;28;20054;-73
2022/07/21 14:58:12;;;;;;;14.95;9.50;;;;;;;;;;5324477;28;20026;-73
2022/07/21 15:00:44;;;;;;;11.37;7.97;;;;;;;;;;5323476;28;20016;-74
2022/07/21 15:03:15;;;;;;;13.90;9.65;;;;;;;;;;5322233;28;20308;-74
2022/07/21 15:05:46;;;;;;;12.63;10.20;;;;;;;;;;5323324;28;20020;-73